createdAt,value
2019-01-28T00:00:09.383Z,1.40
2019-01-28T00:01:09.313Z,1.40
2019-01-28T00:02:09.247Z,1.40
2019-01-28T00:03:09.179Z,1.50
2019-01-28T00:04:09.111Z,1.70
2019-01-28T00:05:09.045Z,1.30
2019-01-28T00:06:08.972Z,1.60
2019-01-28T00:07:08.907Z,1.30
2019-01-28T00:08:08.839Z,1.30
2019-01-28T00:09:08.771Z,1.60
2019-01-28T00:10:08.702Z,1.40
2019-01-28T00:11:08.635Z,1.40
2019-01-28T00:12:08.565Z,1.90
2019-01-28T00:13:08.498Z,1.50
2019-01-28T00:14:08.431Z,1.30
2019-01-28T00:15:08.360Z,1.40
2019-01-28T00:16:08.293Z,1.40
2019-01-28T00:17:08.226Z,1.30
2019-01-28T00:18:08.156Z,1.30
2019-01-28T00:19:08.089Z,1.40
2019-01-28T00:20:08.019Z,1.40
2019-01-28T00:21:07.954Z,1.40
2019-01-28T00:22:07.884Z,1.30
2019-01-28T00:23:07.816Z,1.30
2019-01-28T00:24:07.747Z,1.40
2019-01-28T00:25:07.679Z,2.20
2019-01-28T00:26:07.609Z,1.40
2019-01-28T00:27:07.548Z,1.40
2019-01-28T00:28:07.476Z,1.40
2019-01-28T00:29:07.405Z,1.50
2019-01-28T00:30:07.337Z,1.40
2019-01-28T00:31:07.270Z,1.50
2019-01-28T00:32:07.201Z,1.40
2019-01-28T00:33:07.130Z,1.60
2019-01-28T00:34:07.065Z,1.30
2019-01-28T00:35:06.995Z,1.30
2019-01-28T00:36:06.926Z,1.40
2019-01-28T00:37:06.867Z,1.40
2019-01-28T00:38:06.791Z,1.40
2019-01-28T00:39:06.723Z,1.40
2019-01-28T00:40:06.652Z,1.30
2019-01-28T00:41:06.589Z,1.40
2019-01-28T00:42:06.524Z,1.50
2019-01-28T00:43:06.451Z,1.60
2019-01-28T00:44:06.378Z,1.60
2019-01-28T00:45:06.311Z,1.70
2019-01-28T00:46:06.244Z,1.50
2019-01-28T00:47:06.171Z,1.40
2019-01-28T00:48:06.105Z,1.70
2019-01-28T00:49:06.039Z,1.50
2019-01-28T00:50:05.969Z,1.30
2019-01-28T00:51:05.902Z,2.60
2019-01-28T00:52:05.835Z,1.60
2019-01-28T00:53:05.763Z,1.50
2019-01-28T00:54:05.695Z,1.60
2019-01-28T00:55:05.628Z,1.60
2019-01-28T00:56:05.561Z,1.50
2019-01-28T00:57:05.495Z,1.50
2019-01-28T00:58:05.426Z,1.60
2019-01-28T00:59:05.358Z,1.60
2019-01-28T01:00:05.286Z,1.70
2019-01-28T01:01:05.217Z,1.40
2019-01-28T01:02:05.156Z,1.50
2019-01-28T01:03:05.084Z,1.40
2019-01-28T01:04:05.013Z,1.50
2019-01-28T01:05:04.947Z,1.60
2019-01-28T01:06:04.877Z,1.70
2019-01-28T01:07:04.808Z,1.70
2019-01-28T01:08:04.742Z,1.60
2019-01-28T01:09:04.678Z,1.50
2019-01-28T01:10:04.604Z,1.50
2019-01-28T01:11:04.537Z,1.70
2019-01-28T01:12:04.467Z,1.50
2019-01-28T01:13:04.400Z,1.40
2019-01-28T01:14:04.330Z,1.60
2019-01-28T01:15:04.263Z,1.80
2019-01-28T01:16:04.195Z,1.50
2019-01-28T01:17:04.125Z,1.80
2019-01-28T01:18:04.062Z,1.80
2019-01-28T01:19:03.993Z,1.50
2019-01-28T01:20:03.921Z,1.60
2019-01-28T01:21:03.853Z,1.70
2019-01-28T01:22:03.783Z,1.50
2019-01-28T01:23:03.719Z,1.50
2019-01-28T01:24:03.647Z,1.60
2019-01-28T01:25:03.578Z,1.50
2019-01-28T01:26:03.512Z,1.50
2019-01-28T01:27:03.444Z,1.40
2019-01-28T01:28:03.374Z,1.80
2019-01-28T01:29:03.307Z,1.80
2019-01-28T01:30:03.234Z,1.70
2019-01-28T01:31:03.171Z,1.50
2019-01-28T01:32:03.126Z,1.60
2019-01-28T01:33:03.031Z,1.60
2019-01-28T01:34:02.965Z,1.80
2019-01-28T01:35:02.899Z,1.60
2019-01-28T01:36:02.830Z,1.70
2019-01-28T01:37:02.761Z,1.40
2019-01-28T01:38:02.693Z,1.90
2019-01-28T01:39:02.625Z,1.70
2019-01-28T01:40:02.555Z,1.60
2019-01-28T01:41:02.523Z,1.70
2019-01-28T01:42:02.419Z,1.90
2019-01-28T01:43:02.349Z,1.60
2019-01-28T01:44:02.286Z,1.80
2019-01-28T01:45:02.215Z,1.60
2019-01-28T01:46:02.145Z,1.50
2019-01-28T01:47:02.078Z,1.70
2019-01-28T01:48:02.013Z,1.90
2019-01-28T01:49:01.942Z,1.80
2019-01-28T01:50:01.877Z,1.80
2019-01-28T01:51:01.806Z,1.70
2019-01-28T01:52:01.775Z,1.90
2019-01-28T01:53:01.670Z,1.70
2019-01-28T01:54:01.604Z,1.50
2019-01-28T01:55:01.533Z,1.50
2019-01-28T01:56:01.463Z,1.80
2019-01-28T01:57:01.400Z,1.70
2019-01-28T01:58:01.328Z,1.80
2019-01-28T01:59:01.268Z,1.70
2019-01-28T02:00:01.193Z,1.80
2019-01-28T02:01:01.125Z,1.80
2019-01-28T02:02:01.058Z,1.80
2019-01-28T02:03:00.988Z,1.80
2019-01-28T02:04:00.924Z,1.90
2019-01-28T02:05:00.853Z,1.90
2019-01-28T02:06:00.785Z,1.80
2019-01-28T02:07:00.716Z,1.90
2019-01-28T02:08:00.648Z,1.80
2019-01-28T02:09:00.582Z,1.90
2019-01-28T02:10:00.511Z,1.80
2019-01-28T02:11:00.444Z,1.80
2019-01-28T02:12:00.376Z,1.90
2019-01-28T02:13:00.305Z,1.60
2019-01-28T02:14:00.260Z,1.90
2019-01-28T02:15:00.194Z,1.80
2019-01-28T02:16:00.105Z,1.80
2019-01-28T02:17:00.035Z,1.90
2019-01-28T02:17:59.968Z,1.70
2019-01-28T02:18:59.903Z,1.90
2019-01-28T02:19:59.831Z,2.10
2019-01-28T02:20:59.764Z,1.90
2019-01-28T02:21:59.697Z,2.40
2019-01-28T02:22:59.626Z,2.40
2019-01-28T02:23:59.556Z,4.70
2019-01-28T02:24:59.491Z,7.90
2019-01-28T02:25:59.424Z,6.30
2019-01-28T02:26:59.354Z,4.10
2019-01-28T02:27:59.286Z,2.30
2019-01-28T02:28:59.219Z,2.00
2019-01-28T02:29:59.152Z,2.00
2019-01-28T02:30:59.106Z,2.00
2019-01-28T02:31:59.017Z,1.80
2019-01-28T02:32:58.946Z,1.50
2019-01-28T02:33:58.881Z,2.00
2019-01-28T02:34:58.811Z,2.00
2019-01-28T02:35:58.776Z,1.80
2019-01-28T02:36:58.679Z,1.70
2019-01-28T02:37:58.607Z,1.80
2019-01-28T02:38:58.538Z,1.70
2019-01-28T02:39:58.469Z,1.80
2019-01-28T02:40:58.403Z,2.30
2019-01-28T02:41:58.338Z,2.00
2019-01-28T02:42:58.272Z,1.90
2019-01-28T02:43:58.200Z,1.80
2019-01-28T02:44:58.134Z,1.70
2019-01-28T02:45:58.065Z,2.00
2019-01-28T02:46:57.996Z,1.80
2019-01-28T02:47:57.929Z,2.10
2019-01-28T02:48:57.861Z,1.90
2019-01-28T02:49:57.794Z,1.70
2019-01-28T02:50:57.722Z,1.80
2019-01-28T02:51:57.657Z,4.00
2019-01-28T02:52:57.587Z,1.90
2019-01-28T02:53:57.521Z,1.90
2019-01-28T02:54:57.451Z,1.70
2019-01-28T02:55:57.384Z,2.10
2019-01-28T02:56:57.315Z,1.70
2019-01-28T02:57:57.243Z,1.90
2019-01-28T02:58:57.183Z,1.90
2019-01-28T02:59:57.116Z,2.00
2019-01-28T03:00:57.085Z,1.80
2019-01-28T03:01:56.983Z,1.90
2019-01-28T03:02:56.912Z,2.00
2019-01-28T03:03:56.839Z,1.90
2019-01-28T03:04:56.780Z,1.90
2019-01-28T03:05:56.705Z,2.00
2019-01-28T03:06:56.636Z,1.90
2019-01-28T03:07:56.566Z,2.00
2019-01-28T03:08:56.498Z,1.90
2019-01-28T03:09:56.433Z,2.10
2019-01-28T03:10:56.364Z,2.00
2019-01-28T03:11:56.294Z,1.70
2019-01-28T03:12:56.227Z,2.00
2019-01-28T03:13:56.162Z,2.00
2019-01-28T03:14:56.094Z,1.90
2019-01-28T03:15:56.024Z,2.00
2019-01-28T03:16:55.967Z,1.90
2019-01-28T03:17:55.888Z,1.90
2019-01-28T03:18:55.827Z,1.80
2019-01-28T03:19:55.764Z,1.80
2019-01-28T03:20:55.688Z,1.90
2019-01-28T03:21:55.622Z,1.70
2019-01-28T03:22:55.550Z,2.00
2019-01-28T03:23:55.481Z,1.70
2019-01-28T03:24:55.411Z,1.90
2019-01-28T03:25:55.348Z,1.80
2019-01-28T03:26:55.279Z,1.70
2019-01-28T03:27:55.209Z,1.90
2019-01-28T03:28:55.140Z,1.90
2019-01-28T03:29:55.071Z,1.70
2019-01-28T03:30:55.006Z,2.00
2019-01-28T03:31:54.936Z,1.80
2019-01-28T03:32:54.888Z,2.30
2019-01-28T03:33:54.813Z,2.00
2019-01-28T03:34:54.735Z,1.80
2019-01-28T03:35:54.662Z,2.00
2019-01-28T03:36:54.591Z,1.70
2019-01-28T03:37:54.525Z,1.80
2019-01-28T03:38:54.461Z,1.80
2019-01-28T03:39:54.388Z,1.60
2019-01-28T03:40:54.324Z,1.70
2019-01-28T03:41:54.254Z,2.90
2019-01-28T03:42:54.186Z,1.70
2019-01-28T03:43:54.131Z,1.70
2019-01-28T03:44:54.052Z,1.80
2019-01-28T03:45:53.985Z,1.80
2019-01-28T03:46:53.917Z,1.90
2019-01-28T03:47:53.849Z,1.80
2019-01-28T03:48:53.782Z,1.90
2019-01-28T03:49:53.715Z,1.90
2019-01-28T03:50:53.648Z,1.80
2019-01-28T03:51:53.576Z,1.60
2019-01-28T03:52:53.507Z,2.60
2019-01-28T03:53:53.444Z,1.80
2019-01-28T03:54:53.371Z,1.60
2019-01-28T03:55:53.312Z,1.80
2019-01-28T03:56:53.235Z,1.70
2019-01-28T03:57:53.165Z,1.80
2019-01-28T03:58:53.102Z,1.90
2019-01-28T03:59:53.031Z,1.50
2019-01-28T04:00:52.964Z,1.60
2019-01-28T04:01:52.897Z,1.80
2019-01-28T04:02:52.832Z,1.60
2019-01-28T04:03:52.757Z,1.80
2019-01-28T04:04:52.690Z,1.90
2019-01-28T04:05:52.623Z,1.70
2019-01-28T04:06:52.555Z,1.90
2019-01-28T04:07:52.488Z,1.70
2019-01-28T04:08:52.418Z,2.20
2019-01-28T04:09:52.350Z,1.70
2019-01-28T04:10:52.283Z,1.80
2019-01-28T04:11:52.219Z,1.70
2019-01-28T04:12:52.146Z,2.00
2019-01-28T04:13:52.080Z,1.80
2019-01-28T04:14:52.015Z,3.30
2019-01-28T04:15:51.941Z,1.70
2019-01-28T04:16:51.875Z,1.80
2019-01-28T04:17:51.807Z,1.80
2019-01-28T04:18:51.737Z,1.80
2019-01-28T04:19:51.670Z,1.70
2019-01-28T04:20:51.602Z,2.70
2019-01-28T04:21:51.545Z,2.30
2019-01-28T04:22:51.464Z,1.70
2019-01-28T04:23:51.397Z,2.60
2019-01-28T04:24:51.326Z,1.70
2019-01-28T04:25:51.261Z,1.80
2019-01-28T04:26:51.193Z,1.60
2019-01-28T04:27:51.124Z,1.70
2019-01-28T04:28:51.063Z,1.70
2019-01-28T04:29:50.988Z,2.70
2019-01-28T04:30:50.920Z,2.30
2019-01-28T04:31:50.850Z,1.80
2019-01-28T04:32:50.786Z,1.70
2019-01-28T04:33:50.714Z,1.70
2019-01-28T04:34:50.646Z,1.80
2019-01-28T04:35:50.577Z,1.80
2019-01-28T04:36:50.512Z,2.20
2019-01-28T04:37:50.454Z,2.30
2019-01-28T04:38:50.380Z,2.10
2019-01-28T04:39:50.305Z,1.80
2019-01-28T04:40:50.237Z,2.10
2019-01-28T04:41:50.169Z,1.90
2019-01-28T04:42:50.101Z,1.80
2019-01-28T04:43:50.032Z,1.80
2019-01-28T04:44:49.963Z,1.70
2019-01-28T04:45:49.893Z,4.90
2019-01-28T04:46:49.827Z,2.10
2019-01-28T04:47:49.757Z,2.30
2019-01-28T04:48:49.690Z,2.20
2019-01-28T04:49:49.622Z,1.70
2019-01-28T04:50:49.554Z,1.60
2019-01-28T04:51:49.484Z,2.10
2019-01-28T04:52:49.420Z,3.20
2019-01-28T04:53:49.351Z,1.80
2019-01-28T04:54:49.280Z,2.40
2019-01-28T04:55:49.210Z,2.00
2019-01-28T04:56:49.143Z,2.40
2019-01-28T04:57:49.107Z,3.00
2019-01-28T04:58:49.795Z,2.60
2019-01-28T04:59:48.937Z,2.90
2019-01-28T05:00:48.893Z,2.10
2019-01-28T05:01:48.801Z,2.20
2019-01-28T05:02:48.735Z,3.00
2019-01-28T05:03:48.664Z,2.00
2019-01-28T05:04:48.595Z,2.00
2019-01-28T05:05:48.531Z,2.40
2019-01-28T05:06:48.460Z,2.00
2019-01-28T05:07:48.393Z,3.10
2019-01-28T05:08:48.325Z,3.50
2019-01-28T05:09:48.257Z,2.40
2019-01-28T05:10:48.190Z,2.10
2019-01-28T05:11:48.120Z,1.90
2019-01-28T05:12:48.055Z,4.30
2019-01-28T05:13:47.982Z,2.20
2019-01-28T05:14:47.916Z,2.30
2019-01-28T05:15:47.845Z,3.10
2019-01-28T05:16:47.784Z,2.20
2019-01-28T05:17:47.711Z,1.90
2019-01-28T05:18:47.643Z,3.00
2019-01-28T05:19:47.577Z,2.40
2019-01-28T05:20:47.504Z,2.40
2019-01-28T05:21:47.438Z,1.90
2019-01-28T05:22:47.377Z,2.10
2019-01-28T05:23:47.300Z,2.70
2019-01-28T05:24:47.233Z,2.10
2019-01-28T05:25:47.167Z,2.00
2019-01-28T05:26:47.096Z,2.20
2019-01-28T05:27:47.033Z,1.90
2019-01-28T05:28:46.959Z,1.90
2019-01-28T05:29:46.890Z,1.80
2019-01-28T05:30:46.824Z,1.80
2019-01-28T05:31:46.756Z,1.80
2019-01-28T05:32:46.688Z,1.90
2019-01-28T05:33:46.621Z,1.90
2019-01-28T05:34:46.557Z,1.70
2019-01-28T05:35:46.485Z,1.90
2019-01-28T05:36:46.419Z,2.10
2019-01-28T05:37:46.350Z,1.90
2019-01-28T05:38:46.280Z,1.80
2019-01-28T05:39:46.226Z,1.90
2019-01-28T05:40:46.199Z,2.10
2019-01-28T05:41:46.074Z,2.10
2019-01-28T05:42:46.010Z,2.00
2019-01-28T05:43:45.942Z,2.20
2019-01-28T05:44:45.872Z,1.90
2019-01-28T05:45:45.803Z,2.60
2019-01-28T05:46:45.735Z,1.90
2019-01-28T05:47:45.668Z,3.80
2019-01-28T05:48:45.599Z,1.90
2019-01-28T05:49:45.531Z,2.00
2019-01-28T05:50:45.463Z,2.00
2019-01-28T05:51:45.402Z,1.60
2019-01-28T05:52:45.325Z,1.90
2019-01-28T05:53:45.258Z,1.90
2019-01-28T05:54:45.194Z,3.00
2019-01-28T05:55:45.134Z,1.80
2019-01-28T05:56:45.053Z,1.80
2019-01-28T05:57:44.987Z,1.70
2019-01-28T05:58:44.919Z,1.90
2019-01-28T05:59:44.851Z,2.10
2019-01-28T06:00:44.779Z,2.00
2019-01-28T06:01:44.713Z,1.90
2019-01-28T06:02:44.647Z,1.70
2019-01-28T06:03:44.576Z,1.90
2019-01-28T06:04:44.512Z,2.10
2019-01-28T06:05:44.442Z,1.80
2019-01-28T06:06:44.369Z,2.00
2019-01-28T06:07:44.303Z,1.90
2019-01-28T06:08:44.238Z,1.90
2019-01-28T06:09:44.168Z,2.20
2019-01-28T06:10:44.115Z,2.30
2019-01-28T06:11:44.033Z,1.90
2019-01-28T06:12:43.965Z,2.30
2019-01-28T06:13:43.896Z,3.20
2019-01-28T06:14:43.832Z,2.00
2019-01-28T06:15:43.759Z,2.60
2019-01-28T06:16:43.694Z,2.30
2019-01-28T06:17:43.625Z,2.00
2019-01-28T06:18:43.558Z,2.40
2019-01-28T06:19:43.486Z,3.50
2019-01-28T06:20:43.422Z,1.90
2019-01-28T06:21:43.351Z,1.70
2019-01-28T06:22:43.282Z,1.70
2019-01-28T06:23:43.215Z,1.80
2019-01-28T06:24:43.146Z,1.80
2019-01-28T06:25:43.079Z,1.70
2019-01-28T06:26:43.014Z,2.00
2019-01-28T06:27:42.942Z,2.10
2019-01-28T06:28:42.874Z,2.10
2019-01-28T06:29:42.808Z,2.00
2019-01-28T06:30:42.739Z,1.70
2019-01-28T06:31:42.674Z,3.00
2019-01-28T06:32:42.606Z,2.00
2019-01-28T06:33:42.538Z,1.90
2019-01-28T06:34:42.466Z,2.10
2019-01-28T06:35:42.398Z,1.80
2019-01-28T06:36:42.331Z,1.80
2019-01-28T06:37:42.263Z,1.70
2019-01-28T06:38:42.194Z,1.70
2019-01-28T06:39:42.127Z,2.00
2019-01-28T06:40:42.058Z,1.90
2019-01-28T06:41:41.990Z,1.80
2019-01-28T06:42:41.924Z,1.80
2019-01-28T06:43:41.854Z,1.70
2019-01-28T06:44:41.786Z,1.60
2019-01-28T06:45:41.719Z,1.60
2019-01-28T06:46:41.650Z,1.60
2019-01-28T06:47:46.724Z,1.80
2019-01-28T06:48:41.513Z,1.70
2019-01-28T06:49:41.446Z,1.70
2019-01-28T06:50:41.379Z,3.00
2019-01-28T06:51:41.310Z,2.30
2019-01-28T06:52:41.244Z,1.80
2019-01-28T06:53:41.174Z,2.00
2019-01-28T06:54:41.107Z,1.50
2019-01-28T06:55:41.041Z,1.70
2019-01-28T06:56:40.969Z,2.40
2019-01-28T06:57:40.902Z,1.80
2019-01-28T06:58:40.831Z,1.80
2019-01-28T06:59:40.762Z,1.60
2019-01-28T07:00:40.700Z,1.60
2019-01-28T07:01:40.631Z,1.80
2019-01-28T07:02:40.563Z,1.90
2019-01-28T07:03:40.492Z,1.90
2019-01-28T07:04:40.426Z,1.60
2019-01-28T07:05:40.356Z,1.90
2019-01-28T07:06:40.288Z,1.70
2019-01-28T07:07:40.226Z,1.80
2019-01-28T07:08:40.154Z,1.80
2019-01-28T07:09:40.089Z,1.80
2019-01-28T07:10:40.017Z,1.80
2019-01-28T07:11:39.991Z,2.10
2019-01-28T07:12:39.880Z,1.90
2019-01-28T07:13:39.813Z,2.10
2019-01-28T07:14:39.753Z,2.00
2019-01-28T07:15:39.676Z,1.90
2019-01-28T07:16:39.608Z,1.80
2019-01-28T07:17:39.541Z,2.90
2019-01-28T07:18:39.477Z,1.90
2019-01-28T07:19:39.406Z,1.80
2019-01-28T07:20:39.338Z,3.40
2019-01-28T07:21:39.270Z,2.00
2019-01-28T07:22:39.203Z,1.60
2019-01-28T07:23:39.133Z,3.60
2019-01-28T07:24:39.068Z,2.00
2019-01-28T07:25:38.998Z,1.70
2019-01-28T07:26:38.928Z,1.80
2019-01-28T07:27:38.860Z,2.10
2019-01-28T07:28:38.793Z,2.20
2019-01-28T07:29:38.724Z,2.50
2019-01-28T07:30:38.657Z,2.10
2019-01-28T07:31:38.588Z,3.50
2019-01-28T07:32:38.520Z,3.60
2019-01-28T07:33:38.450Z,2.70
2019-01-28T07:34:38.385Z,5.30
2019-01-28T07:35:38.318Z,2.20
2019-01-28T07:36:38.250Z,2.70
2019-01-28T07:37:38.182Z,3.60
2019-01-28T08:56:16.514Z,3.00
2019-01-28T08:57:08.570Z,2.70
2019-01-28T08:58:08.506Z,3.30
2019-01-28T08:59:08.449Z,2.10
2019-01-28T09:00:08.373Z,3.10
2019-01-28T09:01:08.302Z,1.90
2019-01-28T09:02:08.260Z,2.00
2019-01-28T09:03:08.160Z,2.20
2019-01-28T09:04:08.094Z,1.90
2019-01-28T09:05:08.029Z,2.30
2019-01-28T09:06:07.972Z,2.50
2019-01-28T09:07:07.907Z,2.30
2019-01-28T09:08:07.828Z,2.40
2019-01-28T09:09:07.758Z,3.10
2019-01-28T09:10:07.695Z,2.60
2019-01-28T09:11:07.617Z,2.90
2019-01-28T09:12:07.551Z,2.00
2019-01-28T09:13:07.479Z,2.70
2019-01-28T09:14:07.417Z,1.80
2019-01-28T09:15:07.356Z,2.60
2019-01-28T09:16:07.281Z,1.90
2019-01-28T09:17:07.223Z,2.40
2019-01-28T09:18:07.144Z,3.10
2019-01-28T09:19:07.078Z,2.10
2019-01-28T09:20:07.009Z,3.10
2019-01-28T09:21:06.952Z,2.80
2019-01-28T09:22:06.877Z,3.30
2019-01-28T09:23:06.809Z,1.90
2019-01-28T09:24:06.747Z,1.80
2019-01-28T09:25:06.671Z,1.80
2019-01-28T09:26:06.696Z,1.80
2019-01-28T09:27:06.548Z,1.70
2019-01-28T09:28:06.470Z,2.00
2019-01-28T09:29:06.402Z,1.80
2019-01-28T09:30:06.358Z,2.50
2019-01-28T09:31:06.266Z,1.90
2019-01-28T09:32:06.206Z,3.40
2019-01-28T09:33:06.130Z,2.50
2019-01-28T09:34:06.064Z,2.00
2019-01-28T09:35:05.996Z,2.00
2019-01-28T09:36:05.925Z,1.90
2019-01-28T09:37:05.879Z,3.70
2019-01-28T09:38:05.792Z,1.90
2019-01-28T09:39:05.728Z,2.80
2019-01-28T09:40:05.655Z,1.90
2019-01-28T09:41:05.606Z,3.30
2019-01-28T09:42:05.542Z,1.80
2019-01-28T09:43:05.454Z,2.00
2019-01-28T09:44:05.395Z,2.20
2019-01-28T09:45:05.335Z,1.80
2019-01-28T09:46:05.249Z,2.20
2019-01-28T09:47:05.194Z,3.10
2019-01-28T09:48:05.122Z,1.60
2019-01-28T09:49:05.052Z,3.30
2019-01-28T09:50:04.990Z,1.90
2019-01-28T09:51:04.913Z,2.10
2019-01-28T09:52:04.842Z,2.10
2019-01-28T09:53:04.775Z,1.90
2019-01-28T09:54:04.721Z,1.90
2019-01-28T09:55:04.646Z,3.00
2019-01-28T09:56:04.578Z,2.60
2019-01-28T09:57:04.528Z,2.40
2019-01-28T09:58:04.442Z,2.60
2019-01-28T09:59:04.400Z,2.30
2019-01-28T10:00:04.305Z,1.90
2019-01-28T10:01:04.238Z,3.20
2019-01-28T10:02:04.168Z,1.80
2019-01-28T10:03:04.106Z,2.40
2019-01-28T10:04:04.036Z,2.50
2019-01-28T10:05:03.969Z,2.10
2019-01-28T10:06:03.907Z,2.30
2019-01-28T10:07:03.846Z,3.00
2019-01-28T10:08:03.769Z,1.80
2019-01-28T10:09:03.700Z,2.10
2019-01-28T10:10:03.630Z,2.30
2019-01-28T10:11:03.565Z,1.70
2019-01-28T10:12:03.512Z,2.00
2019-01-28T10:13:03.435Z,1.80
2019-01-28T10:14:03.379Z,1.60
2019-01-28T10:15:03.298Z,2.30
2019-01-28T10:16:03.222Z,2.10
2019-01-28T10:17:03.162Z,2.60
2019-01-28T10:18:03.094Z,2.10
2019-01-28T10:19:03.024Z,3.30
2019-01-28T10:20:02.957Z,2.50
2019-01-28T10:21:02.905Z,2.50
2019-01-28T10:22:02.834Z,2.00
2019-01-28T10:23:02.767Z,1.70
2019-01-28T10:24:02.688Z,5.30
2019-01-28T10:25:02.622Z,6.80
2019-01-28T10:26:02.555Z,7.90
2019-01-28T10:27:02.488Z,6.10
2019-01-28T10:28:02.426Z,6.60
2019-01-28T10:29:02.352Z,5.50
2019-01-28T10:30:02.313Z,2.30
2019-01-28T10:31:02.219Z,2.50
2019-01-28T10:32:02.207Z,1.90
2019-01-28T10:33:02.087Z,1.90
2019-01-28T10:34:02.031Z,1.80
2019-01-28T10:35:01.953Z,2.10
2019-01-28T10:36:01.896Z,2.70
2019-01-28T10:37:01.816Z,1.70
2019-01-28T10:38:01.750Z,2.10
2019-01-28T10:39:01.689Z,1.80
2019-01-28T10:40:01.616Z,2.80
2019-01-28T10:41:01.566Z,3.60
2019-01-28T10:42:01.480Z,1.60
2019-01-28T10:43:01.526Z,1.80
2019-01-28T10:44:01.348Z,1.90
2019-01-28T10:45:01.280Z,2.20
2019-01-28T10:46:01.230Z,2.60
2019-01-28T10:47:01.146Z,1.70
2019-01-28T10:48:01.130Z,3.30
2019-01-28T10:49:01.006Z,3.00
2019-01-28T10:50:00.972Z,1.70
2019-01-28T10:51:00.893Z,1.80
2019-01-28T10:52:00.814Z,3.10
2019-01-28T10:53:00.767Z,1.50
2019-01-28T10:54:00.674Z,1.90
2019-01-28T10:55:00.631Z,1.40
2019-01-28T10:56:00.541Z,3.20
2019-01-28T10:57:00.472Z,1.80
2019-01-28T10:58:00.403Z,2.60
2019-01-28T10:59:00.349Z,1.80
2019-01-28T11:00:00.296Z,2.00
2019-01-28T11:01:00.208Z,1.70
2019-01-28T11:02:00.194Z,1.60
2019-01-28T11:03:00.093Z,2.60
2019-01-28T11:04:00.004Z,1.60
2019-01-28T11:04:59.938Z,1.90
2019-01-28T11:05:59.880Z,1.70
2019-01-28T11:06:59.805Z,3.60
2019-01-28T11:07:59.742Z,2.00
2019-01-28T11:08:59.675Z,4.20
2019-01-28T11:09:59.605Z,2.60
2019-01-28T11:10:59.624Z,1.80
2019-01-28T11:11:59.516Z,1.70
2019-01-28T11:12:59.454Z,1.70
2019-01-28T11:13:59.348Z,1.70
2019-01-28T11:14:59.269Z,3.20
2019-01-28T11:15:59.283Z,2.30
2019-01-28T11:16:59.257Z,2.30
2019-01-28T11:17:59.089Z,2.50
2019-01-28T11:18:59.003Z,2.80
2019-01-28T11:19:59.041Z,2.10
2019-01-28T11:20:58.866Z,1.80
2019-01-28T11:21:58.804Z,3.10
2019-01-28T11:22:58.738Z,4.80
2019-01-28T11:23:58.700Z,1.90
2019-01-28T11:24:58.615Z,3.10
2019-01-28T11:25:58.553Z,2.20
2019-01-28T11:26:58.473Z,2.10
2019-01-28T11:27:58.452Z,3.90
2019-01-28T11:28:58.350Z,2.20
2019-01-28T11:29:58.414Z,2.00
2019-01-28T11:30:58.316Z,3.80
2019-01-28T11:31:58.236Z,4.10
2019-01-28T11:32:58.098Z,2.10
2019-01-28T11:33:57.998Z,3.60
2019-01-28T11:34:57.941Z,4.00
2019-01-28T11:36:05.059Z,2.50
2019-01-28T11:36:57.891Z,2.50
2019-01-28T11:37:57.763Z,5.70
2019-01-28T11:38:57.690Z,3.50
2019-01-28T11:39:57.631Z,6.90
2019-01-28T11:40:57.608Z,4.30
2019-01-28T11:41:57.587Z,3.60
2019-01-28T11:42:57.453Z,2.50
2019-01-28T11:43:57.321Z,3.40
2019-01-28T11:44:57.359Z,4.10
2019-01-28T11:45:57.218Z,2.70
2019-01-28T11:46:57.256Z,3.50
2019-01-28T11:47:57.077Z,2.40
2019-01-28T11:48:57.132Z,2.30
2019-01-28T11:49:57.026Z,3.80
2019-01-28T11:50:56.855Z,4.20
2019-01-28T11:51:56.785Z,3.20
2019-01-28T11:52:56.725Z,3.40
2019-01-28T11:53:56.656Z,3.80
2019-01-28T11:54:56.592Z,4.30
2019-01-28T11:55:56.517Z,2.80
2019-01-28T11:56:56.458Z,4.30
2019-01-28T11:57:56.385Z,3.70
2019-01-28T11:58:56.320Z,4.90
2019-01-28T11:59:56.252Z,3.60
2019-01-28T12:00:56.198Z,2.90
2019-01-28T12:01:56.118Z,4.00
2019-01-28T12:02:56.073Z,5.30
2019-01-28T12:03:55.990Z,3.30
2019-01-28T12:04:55.922Z,1.80
2019-01-28T12:05:55.850Z,2.10
2019-01-28T12:06:55.788Z,3.20
2019-01-28T12:07:55.719Z,4.30
2019-01-28T12:08:56.014Z,5.00
2019-01-28T12:09:55.595Z,2.00
2019-01-28T12:10:55.515Z,4.10
2019-01-28T12:11:55.446Z,5.80
2019-01-28T12:12:55.400Z,4.90
2019-01-28T12:13:55.337Z,3.10
2019-01-28T12:14:55.242Z,2.50
2019-01-28T12:15:55.180Z,3.00
2019-01-28T12:16:55.116Z,3.80
2019-01-28T12:17:55.057Z,5.20
2019-01-28T12:18:54.979Z,3.80
2019-01-28T12:19:54.912Z,3.30
2019-01-28T12:20:54.869Z,3.70
2019-01-28T12:21:54.773Z,3.20
2019-01-28T12:22:54.709Z,5.10
2019-01-28T12:23:54.643Z,2.70
2019-01-28T12:24:54.578Z,4.10
2019-01-28T12:25:54.504Z,4.80
2019-01-28T12:26:54.441Z,4.90
2019-01-28T12:27:54.375Z,5.10
2019-01-28T12:28:54.309Z,4.50
2019-01-28T12:29:54.243Z,2.60
2019-01-28T12:30:54.175Z,6.20
2019-01-28T12:31:54.123Z,5.80
2019-01-28T12:32:54.035Z,5.50
2019-01-28T12:33:53.976Z,5.10
2019-01-28T12:34:53.930Z,3.70
2019-01-28T12:35:53.832Z,4.30
2019-01-28T12:36:53.773Z,5.00
2019-01-28T12:37:53.710Z,3.40
2019-01-28T12:38:53.635Z,3.50
2019-01-28T12:39:53.569Z,4.40
2019-01-28T12:40:53.503Z,4.40
2019-01-28T12:41:53.451Z,6.30
2019-01-28T12:42:53.378Z,5.40
2019-01-28T12:43:53.305Z,5.30
2019-01-28T12:44:53.235Z,3.10
2019-01-28T12:45:53.186Z,3.90
2019-01-28T12:46:53.098Z,4.30
2019-01-28T12:47:53.620Z,4.50
2019-01-28T12:48:52.971Z,7.70
2019-01-28T12:49:52.907Z,3.00
2019-01-28T12:50:52.835Z,4.80
2019-01-28T12:51:52.795Z,3.00
2019-01-28T12:52:52.710Z,4.60
2019-01-28T12:53:52.726Z,3.80
2019-01-28T12:54:52.563Z,2.80
2019-01-28T12:55:52.497Z,4.90
2019-01-28T12:56:52.444Z,4.70
2019-01-28T12:57:52.376Z,4.40
2019-01-28T12:58:52.296Z,4.60
2019-01-28T12:59:52.235Z,5.10
2019-01-28T13:00:52.168Z,4.10
2019-01-28T13:01:52.096Z,4.80
2019-01-28T13:02:52.068Z,3.90
2019-01-28T13:03:51.971Z,4.60
2019-01-28T13:04:51.960Z,3.90
2019-01-28T13:05:51.826Z,5.10
2019-01-28T13:06:51.758Z,3.20
2019-01-28T13:07:51.692Z,3.30
2019-01-28T13:08:51.624Z,3.10
2019-01-28T13:09:51.566Z,3.40
2019-01-28T13:10:51.490Z,3.70
2019-01-28T13:11:51.420Z,5.70
2019-01-28T13:12:51.359Z,3.20
2019-01-28T13:13:51.302Z,3.00
2019-01-28T13:14:51.234Z,5.50
2019-01-28T13:15:51.153Z,4.10
2019-01-28T13:16:51.118Z,6.40
2019-01-28T13:17:51.021Z,8.30
2019-01-28T13:18:50.958Z,5.60
2019-01-28T13:19:50.891Z,4.80
2019-01-28T13:20:50.835Z,6.20
2019-01-28T13:21:50.750Z,3.40
2019-01-28T13:22:50.703Z,4.50
2019-01-28T13:23:50.618Z,4.70
2019-01-28T13:24:50.562Z,4.60
2019-01-28T13:25:50.483Z,3.50
2019-01-28T13:26:50.452Z,2.50
2019-01-28T13:27:50.351Z,5.00
2019-01-28T13:28:50.285Z,4.70
2019-01-28T13:29:50.215Z,5.30
2019-01-28T13:30:50.146Z,3.40
2019-01-28T13:31:50.085Z,4.50
2019-01-28T13:32:50.014Z,6.50
2019-01-28T13:33:49.944Z,6.00
2019-01-28T13:34:49.875Z,4.20
2019-01-28T13:35:49.811Z,2.80
2019-01-28T13:36:49.742Z,3.70
2019-01-28T13:37:49.700Z,4.70
2019-01-28T13:38:49.609Z,3.30
2019-01-28T13:39:49.543Z,5.60
2019-01-28T13:40:49.475Z,3.60
2019-01-28T13:41:49.405Z,7.20
2019-01-28T13:42:49.341Z,5.60
2019-01-28T13:43:49.284Z,6.60
2019-01-28T13:44:49.209Z,4.60
2019-01-28T13:45:49.140Z,5.70
2019-01-28T13:46:49.070Z,4.00
2019-01-28T13:47:49.012Z,5.00
2019-01-28T13:48:48.948Z,3.50
2019-01-28T13:49:48.875Z,3.60
2019-01-28T13:50:48.827Z,3.00
2019-01-28T13:51:48.753Z,6.00
2019-01-28T13:52:48.670Z,3.00
2019-01-28T13:53:48.602Z,5.50
2019-01-28T13:54:48.540Z,5.20
2019-01-28T13:55:48.472Z,2.40
2019-01-28T13:56:48.419Z,4.70
2019-01-28T13:57:48.342Z,3.80
2019-01-28T13:58:48.267Z,8.70
2019-01-28T13:59:48.202Z,4.50
2019-01-28T14:00:48.135Z,4.90
2019-01-28T14:01:48.066Z,5.40
2019-01-28T14:02:48.019Z,3.40
2019-01-28T14:03:47.932Z,5.00
2019-01-28T14:04:47.869Z,2.30
2019-01-28T14:05:47.795Z,3.10
2019-01-28T14:06:47.728Z,3.50
2019-01-28T14:07:47.687Z,5.30
2019-01-28T14:08:47.614Z,4.80
2019-01-28T14:09:47.529Z,3.30
2019-01-28T14:10:47.460Z,5.60
2019-01-28T14:11:47.394Z,3.40
2019-01-28T14:12:47.326Z,2.70
2019-01-28T14:13:47.272Z,5.50
2019-01-28T14:14:47.213Z,4.00
2019-01-28T14:15:47.139Z,2.70
2019-01-28T14:16:47.062Z,2.80
2019-01-28T14:17:46.996Z,2.80
2019-01-28T14:18:46.922Z,2.40
2019-01-28T14:19:46.858Z,3.70
2019-01-28T14:20:46.786Z,2.30
2019-01-28T14:21:46.723Z,6.00
2019-01-28T14:22:46.657Z,4.80
2019-01-28T14:23:46.604Z,5.60
2019-01-28T14:24:46.537Z,4.70
2019-01-28T14:25:46.467Z,8.10
2019-01-28T14:26:46.386Z,5.00
2019-01-28T14:27:49.699Z,5.30
2019-01-28T14:28:46.275Z,3.60
2019-01-28T14:29:46.259Z,5.80
2019-01-28T14:30:46.135Z,5.80
2019-01-28T14:31:46.064Z,3.20
2019-01-28T14:32:45.983Z,3.80
2019-01-28T14:33:45.916Z,2.80
2019-01-28T14:34:45.848Z,3.20